sensor_id;sensor_type;location;lat;lon;timestamp;P1;durP1;ratioP1;P2;durP2;ratioP2
45650;SDS011;31365;48.858;8.530;2024-02-26T00:00:02;7.93;;;7.13;;
45650;SDS011;31365;48.858;8.530;2024-02-26T00:02:36;8.63;;;7.33;;
45650;SDS011;31365;48.858;8.530;2024-02-26T00:05:05;6.18;;;5.57;;
45650;SDS011;31365;48.858;8.530;2024-02-26T00:07:35;4.40;;;4.00;;
45650;SDS011;31365;48.858;8.530;2024-02-26T00:10:06;3.75;;;2.95;;
45650;SDS011;31365;48.858;8.530;2024-02-26T00:12:36;2.67;;;2.47;;
45650;SDS011;31365;48.858;8.530;2024-02-26T00:15:05;2.80;;;2.60;;
45650;SDS011;31365;48.858;8.530;2024-02-26T00:17:35;2.63;;;2.42;;
45650;SDS011;31365;48.858;8.530;2024-02-26T00:20:06;3.13;;;2.90;;
45650;SDS011;31365;48.858;8.530;2024-02-26T00:22:36;2.40;;;2.20;;
45650;SDS011;31365;48.858;8.530;2024-02-26T00:25:06;2.70;;;2.50;;
45650;SDS011;31365;48.858;8.530;2024-02-26T00:27:35;3.20;;;2.90;;
45650;SDS011;31365;48.858;8.530;2024-02-26T00:30:06;2.20;;;2.10;;
45650;SDS011;31365;48.858;8.530;2024-02-26T00:32:36;2.53;;;2.33;;
45650;SDS011;31365;48.858;8.530;2024-02-26T00:35:05;2.28;;;2.17;;
45650;SDS011;31365;48.858;8.530;2024-02-26T00:37:36;4.45;;;2.50;;
45650;SDS011;31365;48.858;8.530;2024-02-26T00:40:05;2.40;;;2.20;;
45650;SDS011;31365;48.858;8.530;2024-02-26T00:42:36;2.53;;;2.33;;
45650;SDS011;31365;48.858;8.530;2024-02-26T00:45:05;2.50;;;2.30;;
45650;SDS011;31365;48.858;8.530;2024-02-26T00:47:35;2.30;;;2.20;;
45650;SDS011;31365;48.858;8.530;2024-02-26T00:50:04;2.25;;;2.15;;
45650;SDS011;31365;48.858;8.530;2024-02-26T00:52:35;2.30;;;2.20;;
45650;SDS011;31365;48.858;8.530;2024-02-26T00:55:04;2.78;;;2.35;;
45650;SDS011;31365;48.858;8.530;2024-02-26T00:57:36;2.40;;;2.20;;
45650;SDS011;31365;48.858;8.530;2024-02-26T01:00:04;2.28;;;2.15;;
45650;SDS011;31365;48.858;8.530;2024-02-26T01:02:35;2.33;;;2.22;;
45650;SDS011;31365;48.858;8.530;2024-02-26T01:05:05;2.15;;;2.05;;
45650;SDS011;31365;48.858;8.530;2024-02-26T01:07:36;2.30;;;2.20;;
45650;SDS011;31365;48.858;8.530;2024-02-26T01:10:08;2.92;;;2.22;;
45650;SDS011;31365;48.858;8.530;2024-02-26T01:12:37;2.47;;;2.30;;
45650;SDS011;31365;48.858;8.530;2024-02-26T01:15:05;2.50;;;2.30;;
45650;SDS011;31365;48.858;8.530;2024-02-26T01:17:35;2.30;;;2.20;;
45650;SDS011;31365;48.858;8.530;2024-02-26T01:20:05;2.45;;;2.25;;
45650;SDS011;31365;48.858;8.530;2024-02-26T01:22:35;2.20;;;2.10;;
45650;SDS011;31365;48.858;8.530;2024-02-26T01:25:06;2.38;;;2.13;;
45650;SDS011;31365;48.858;8.530;2024-02-26T01:27:36;2.30;;;2.10;;
45650;SDS011;31365;48.858;8.530;2024-02-26T01:30:05;2.50;;;2.30;;
45650;SDS011;31365;48.858;8.530;2024-02-26T01:32:35;2.28;;;2.10;;
45650;SDS011;31365;48.858;8.530;2024-02-26T01:35:04;2.27;;;2.17;;
45650;SDS011;31365;48.858;8.530;2024-02-26T01:37:36;2.53;;;2.33;;
45650;SDS011;31365;48.858;8.530;2024-02-26T01:40:07;2.73;;;2.53;;
45650;SDS011;31365;48.858;8.530;2024-02-26T01:42:38;2.67;;;2.47;;
45650;SDS011;31365;48.858;8.530;2024-02-26T01:45:08;2.20;;;2.10;;
45650;SDS011;31365;48.858;8.530;2024-02-26T01:47:48;2.17;;;2.07;;
45650;SDS011;31365;48.858;8.530;2024-02-26T01:50:20;2.10;;;2.00;;
45650;SDS011;31365;48.858;8.530;2024-02-26T01:52:50;2.00;;;1.90;;
45650;SDS011;31365;48.858;8.530;2024-02-26T01:55:21;2.53;;;1.87;;
45650;SDS011;31365;48.858;8.530;2024-02-26T01:57:53;1.60;;;1.50;;
45650;SDS011;31365;48.858;8.530;2024-02-26T02:00:22;1.70;;;1.60;;
45650;SDS011;31365;48.858;8.530;2024-02-26T02:02:52;1.70;;;1.60;;
45650;SDS011;31365;48.858;8.530;2024-02-26T02:05:21;2.03;;;1.93;;
45650;SDS011;31365;48.858;8.530;2024-02-26T02:07:51;1.70;;;1.60;;
45650;SDS011;31365;48.858;8.530;2024-02-26T02:10:21;1.60;;;1.50;;
45650;SDS011;31365;48.858;8.530;2024-02-26T02:12:52;1.90;;;1.80;;
45650;SDS011;31365;48.858;8.530;2024-02-26T02:15:21;1.70;;;1.60;;
45650;SDS011;31365;48.858;8.530;2024-02-26T02:17:50;1.97;;;1.83;;
45650;SDS011;31365;48.858;8.530;2024-02-26T02:20:19;2.63;;;1.80;;
45650;SDS011;31365;48.858;8.530;2024-02-26T02:22:53;1.57;;;1.50;;
45650;SDS011;31365;48.858;8.530;2024-02-26T02:25:22;1.80;;;1.70;;
45650;SDS011;31365;48.858;8.530;2024-02-26T02:27:51;2.50;;;2.20;;
45650;SDS011;31365;48.858;8.530;2024-02-26T02:30:21;2.80;;;2.07;;
45650;SDS011;31365;48.858;8.530;2024-02-26T02:32:55;2.00;;;1.90;;
45650;SDS011;31365;48.858;8.530;2024-02-26T02:35:26;2.10;;;2.00;;
45650;SDS011;31365;48.858;8.530;2024-02-26T02:37:55;1.77;;;1.70;;
45650;SDS011;31365;48.858;8.530;2024-02-26T02:40:25;2.13;;;2.03;;
45650;SDS011;31365;48.858;8.530;2024-02-26T02:42:53;2.10;;;2.00;;
45650;SDS011;31365;48.858;8.530;2024-02-26T02:45:21;2.20;;;2.10;;
45650;SDS011;31365;48.858;8.530;2024-02-26T02:47:49;2.77;;;2.50;;
45650;SDS011;31365;48.858;8.530;2024-02-26T02:50:18;3.30;;;3.20;;
45650;SDS011;31365;48.858;8.530;2024-02-26T02:52:48;3.27;;;3.13;;
45650;SDS011;31365;48.858;8.530;2024-02-26T02:55:17;3.43;;;3.33;;
45650;SDS011;31365;48.858;8.530;2024-02-26T02:57:46;3.33;;;3.17;;
45650;SDS011;31365;48.858;8.530;2024-02-26T03:00:15;3.37;;;3.27;;
45650;SDS011;31365;48.858;8.530;2024-02-26T03:02:44;4.63;;;4.33;;
45650;SDS011;31365;48.858;8.530;2024-02-26T03:05:13;3.63;;;3.43;;
45650;SDS011;31365;48.858;8.530;2024-02-26T03:07:42;3.00;;;2.90;;
45650;SDS011;31365;48.858;8.530;2024-02-26T03:10:11;3.30;;;3.20;;
45650;SDS011;31365;48.858;8.530;2024-02-26T03:12:40;3.17;;;3.00;;
45650;SDS011;31365;48.858;8.530;2024-02-26T03:15:09;3.30;;;3.10;;
45650;SDS011;31365;48.858;8.530;2024-02-26T03:17:38;3.20;;;3.00;;
45650;SDS011;31365;48.858;8.530;2024-02-26T03:20:07;3.50;;;3.30;;
45650;SDS011;31365;48.858;8.530;2024-02-26T03:22:38;4.00;;;3.80;;
45650;SDS011;31365;48.858;8.530;2024-02-26T03:25:07;4.00;;;3.90;;
45650;SDS011;31365;48.858;8.530;2024-02-26T03:27:38;4.40;;;4.20;;
45650;SDS011;31365;48.858;8.530;2024-02-26T03:30:06;4.60;;;4.40;;
45650;SDS011;31365;48.858;8.530;2024-02-26T03:32:36;5.70;;;5.40;;
45650;SDS011;31365;48.858;8.530;2024-02-26T03:35:05;5.20;;;5.00;;
45650;SDS011;31365;48.858;8.530;2024-02-26T03:37:35;5.03;;;4.83;;
45650;SDS011;31365;48.858;8.530;2024-02-26T03:40:04;6.10;;;5.80;;
45650;SDS011;31365;48.858;8.530;2024-02-26T03:42:34;5.80;;;5.50;;
45650;SDS011;31365;48.858;8.530;2024-02-26T03:45:05;6.50;;;6.20;;
45650;SDS011;31365;48.858;8.530;2024-02-26T03:47:37;5.50;;;5.30;;
45650;SDS011;31365;48.858;8.530;2024-02-26T03:50:06;5.60;;;5.40;;
45650;SDS011;31365;48.858;8.530;2024-02-26T03:52:35;5.73;;;5.43;;
45650;SDS011;31365;48.858;8.530;2024-02-26T03:55:04;5.47;;;5.27;;
45650;SDS011;31365;48.858;8.530;2024-02-26T03:57:32;5.30;;;5.10;;
45650;SDS011;31365;48.858;8.530;2024-02-26T04:00:01;5.40;;;5.20;;
45650;SDS011;31365;48.858;8.530;2024-02-26T04:02:37;5.40;;;5.20;;
45650;SDS011;31365;48.858;8.530;2024-02-26T04:05:08;5.10;;;4.90;;
45650;SDS011;31365;48.858;8.530;2024-02-26T04:07:38;5.13;;;4.93;;
45650;SDS011;31365;48.858;8.530;2024-02-26T04:10:08;5.50;;;5.10;;
45650;SDS011;31365;48.858;8.530;2024-02-26T04:12:38;5.00;;;4.80;;
45650;SDS011;31365;48.858;8.530;2024-02-26T04:15:08;5.13;;;4.93;;
45650;SDS011;31365;48.858;8.530;2024-02-26T04:17:40;5.10;;;4.90;;
45650;SDS011;31365;48.858;8.530;2024-02-26T04:20:12;5.47;;;5.27;;
45650;SDS011;31365;48.858;8.530;2024-02-26T04:22:43;5.43;;;5.13;;
45650;SDS011;31365;48.858;8.530;2024-02-26T04:25:12;4.90;;;4.70;;
45650;SDS011;31365;48.858;8.530;2024-02-26T04:27:40;4.70;;;4.50;;
45650;SDS011;31365;48.858;8.530;2024-02-26T04:30:09;4.53;;;4.40;;
45650;SDS011;31365;48.858;8.530;2024-02-26T04:32:39;4.43;;;4.23;;
45650;SDS011;31365;48.858;8.530;2024-02-26T04:35:08;4.17;;;4.03;;
45650;SDS011;31365;48.858;8.530;2024-02-26T04:37:37;4.50;;;4.30;;
45650;SDS011;31365;48.858;8.530;2024-02-26T04:40:06;4.40;;;4.20;;
45650;SDS011;31365;48.858;8.530;2024-02-26T04:42:36;4.20;;;4.10;;
45650;SDS011;31365;48.858;8.530;2024-02-26T04:45:05;4.70;;;4.50;;
45650;SDS011;31365;48.858;8.530;2024-02-26T04:47:35;5.10;;;4.80;;
45650;SDS011;31365;48.858;8.530;2024-02-26T04:50:07;5.00;;;4.70;;
45650;SDS011;31365;48.858;8.530;2024-02-26T04:52:36;4.43;;;4.23;;
45650;SDS011;31365;48.858;8.530;2024-02-26T04:55:04;4.70;;;4.40;;
45650;SDS011;31365;48.858;8.530;2024-02-26T04:57:34;4.87;;;4.67;;
45650;SDS011;31365;48.858;8.530;2024-02-26T05:00:02;5.40;;;5.00;;
45650;SDS011;31365;48.858;8.530;2024-02-26T05:02:32;4.50;;;4.20;;
45650;SDS011;31365;48.858;8.530;2024-02-26T05:05:05;5.13;;;4.83;;
45650;SDS011;31365;48.858;8.530;2024-02-26T05:07:39;4.20;;;4.00;;
45650;SDS011;31365;48.858;8.530;2024-02-26T05:10:09;4.80;;;4.50;;
45650;SDS011;31365;48.858;8.530;2024-02-26T05:12:38;5.07;;;4.67;;
45650;SDS011;31365;48.858;8.530;2024-02-26T05:15:09;4.50;;;4.30;;
45650;SDS011;31365;48.858;8.530;2024-02-26T05:17:39;5.90;;;5.40;;
45650;SDS011;31365;48.858;8.530;2024-02-26T05:20:10;7.00;;;6.47;;
45650;SDS011;31365;48.858;8.530;2024-02-26T05:22:38;8.80;;;7.97;;
45650;SDS011;31365;48.858;8.530;2024-02-26T05:25:06;5.90;;;5.50;;
45650;SDS011;31365;48.858;8.530;2024-02-26T05:27:35;8.80;;;7.90;;
45650;SDS011;31365;48.858;8.530;2024-02-26T05:30:03;6.67;;;6.27;;
45650;SDS011;31365;48.858;8.530;2024-02-26T05:32:33;7.10;;;6.60;;
45650;SDS011;31365;48.858;8.530;2024-02-26T05:35:02;6.10;;;5.80;;
45650;SDS011;31365;48.858;8.530;2024-02-26T05:37:33;5.97;;;5.67;;
45650;SDS011;31365;48.858;8.530;2024-02-26T05:40:02;5.37;;;4.87;;
45650;SDS011;31365;48.858;8.530;2024-02-26T05:42:33;4.80;;;4.60;;
45650;SDS011;31365;48.858;8.530;2024-02-26T05:45:01;4.90;;;4.70;;
45650;SDS011;31365;48.858;8.530;2024-02-26T05:47:33;5.40;;;5.17;;
45650;SDS011;31365;48.858;8.530;2024-02-26T05:50:02;4.73;;;4.53;;
45650;SDS011;31365;48.858;8.530;2024-02-26T05:52:32;4.33;;;4.13;;
45650;SDS011;31365;48.858;8.530;2024-02-26T05:55:01;4.80;;;4.60;;
45650;SDS011;31365;48.858;8.530;2024-02-26T05:57:29;4.43;;;4.23;;
45650;SDS011;31365;48.858;8.530;2024-02-26T05:59:58;4.40;;;4.20;;
45650;SDS011;31365;48.858;8.530;2024-02-26T06:02:39;7.63;;;7.10;;
45650;SDS011;31365;48.858;8.530;2024-02-26T06:05:09;4.97;;;4.77;;
45650;SDS011;31365;48.858;8.530;2024-02-26T06:07:39;4.60;;;4.40;;
45650;SDS011;31365;48.858;8.530;2024-02-26T06:10:08;5.23;;;4.93;;
45650;SDS011;31365;48.858;8.530;2024-02-26T06:12:40;4.43;;;4.23;;
45650;SDS011;31365;48.858;8.530;2024-02-26T06:15:09;4.03;;;3.77;;
45650;SDS011;31365;48.858;8.530;2024-02-26T06:17:39;4.40;;;4.17;;
45650;SDS011;31365;48.858;8.530;2024-02-26T06:20:08;4.80;;;4.60;;
45650;SDS011;31365;48.858;8.530;2024-02-26T06:22:41;5.30;;;5.10;;
45650;SDS011;31365;48.858;8.530;2024-02-26T06:25:09;6.40;;;6.00;;
45650;SDS011;31365;48.858;8.530;2024-02-26T06:27:38;5.30;;;5.00;;
45650;SDS011;31365;48.858;8.530;2024-02-26T06:30:07;4.70;;;4.47;;
45650;SDS011;31365;48.858;8.530;2024-02-26T06:32:37;5.27;;;4.97;;
45650;SDS011;31365;48.858;8.530;2024-02-26T06:35:06;5.50;;;5.20;;
45650;SDS011;31365;48.858;8.530;2024-02-26T06:37:37;5.37;;;5.00;;
45650;SDS011;31365;48.858;8.530;2024-02-26T06:40:08;5.43;;;5.13;;
45650;SDS011;31365;48.858;8.530;2024-02-26T06:42:37;4.73;;;4.53;;
45650;SDS011;31365;48.858;8.530;2024-02-26T06:45:06;5.10;;;4.80;;
45650;SDS011;31365;48.858;8.530;2024-02-26T06:47:35;4.97;;;4.67;;
45650;SDS011;31365;48.858;8.530;2024-02-26T06:50:04;4.60;;;4.40;;
45650;SDS011;31365;48.858;8.530;2024-02-26T06:52:35;4.10;;;4.00;;
45650;SDS011;31365;48.858;8.530;2024-02-26T06:55:03;4.90;;;4.70;;
45650;SDS011;31365;48.858;8.530;2024-02-26T06:57:36;4.57;;;4.37;;
45650;SDS011;31365;48.858;8.530;2024-02-26T07:00:06;4.40;;;4.20;;
45650;SDS011;31365;48.858;8.530;2024-02-26T07:02:40;4.43;;;4.23;;
45650;SDS011;31365;48.858;8.530;2024-02-26T07:05:08;5.00;;;4.73;;
45650;SDS011;31365;48.858;8.530;2024-02-26T07:07:37;4.70;;;4.40;;
45650;SDS011;31365;48.858;8.530;2024-02-26T07:10:06;4.40;;;4.20;;
45650;SDS011;31365;48.858;8.530;2024-02-26T07:12:38;4.27;;;4.00;;
45650;SDS011;31365;48.858;8.530;2024-02-26T07:15:07;5.00;;;4.70;;
45650;SDS011;31365;48.858;8.530;2024-02-26T07:17:37;4.30;;;4.10;;
45650;SDS011;31365;48.858;8.530;2024-02-26T07:20:08;4.40;;;4.20;;
45650;SDS011;31365;48.858;8.530;2024-02-26T07:22:38;4.40;;;4.20;;
45650;SDS011;31365;48.858;8.530;2024-02-26T07:25:06;4.60;;;4.40;;
45650;SDS011;31365;48.858;8.530;2024-02-26T07:27:35;4.37;;;4.17;;
45650;SDS011;31365;48.858;8.530;2024-02-26T07:30:06;4.60;;;4.40;;
45650;SDS011;31365;48.858;8.530;2024-02-26T07:32:36;5.80;;;4.43;;
45650;SDS011;31365;48.858;8.530;2024-02-26T07:35:04;4.40;;;4.10;;
45650;SDS011;31365;48.858;8.530;2024-02-26T07:37:33;4.60;;;4.40;;
45650;SDS011;31365;48.858;8.530;2024-02-26T07:40:03;5.00;;;4.80;;
45650;SDS011;31365;48.858;8.530;2024-02-26T07:42:35;4.03;;;3.93;;
45650;SDS011;31365;48.858;8.530;2024-02-26T07:45:04;4.10;;;3.90;;
45650;SDS011;31365;48.858;8.530;2024-02-26T07:47:35;4.53;;;4.33;;
45650;SDS011;31365;48.858;8.530;2024-02-26T07:50:30;5.00;;;4.80;;
45650;SDS011;31365;48.858;8.530;2024-02-26T07:52:58;5.30;;;5.00;;
45650;SDS011;31365;48.858;8.530;2024-02-26T07:55:27;4.60;;;4.30;;
45650;SDS011;31365;48.858;8.530;2024-02-26T07:57:55;4.40;;;4.20;;
45650;SDS011;31365;48.858;8.530;2024-02-26T08:00:25;3.90;;;3.70;;
45650;SDS011;31365;48.858;8.530;2024-02-26T08:02:53;4.17;;;3.97;;
45650;SDS011;31365;48.858;8.530;2024-02-26T08:05:21;4.13;;;3.93;;
45650;SDS011;31365;48.858;8.530;2024-02-26T08:07:50;4.20;;;4.00;;
45650;SDS011;31365;48.858;8.530;2024-02-26T08:10:19;4.13;;;3.93;;
45650;SDS011;31365;48.858;8.530;2024-02-26T08:12:47;4.00;;;3.70;;
45650;SDS011;31365;48.858;8.530;2024-02-26T08:15:16;4.10;;;3.90;;
45650;SDS011;31365;48.858;8.530;2024-02-26T08:17:46;4.20;;;4.00;;
45650;SDS011;31365;48.858;8.530;2024-02-26T08:20:15;3.70;;;3.50;;
45650;SDS011;31365;48.858;8.530;2024-02-26T08:22:45;4.00;;;3.80;;
45650;SDS011;31365;48.858;8.530;2024-02-26T08:25:15;3.73;;;3.60;;
45650;SDS011;31365;48.858;8.530;2024-02-26T08:27:44;4.00;;;3.80;;
45650;SDS011;31365;48.858;8.530;2024-02-26T08:30:14;3.90;;;3.73;;
45650;SDS011;31365;48.858;8.530;2024-02-26T08:32:44;3.87;;;3.67;;
45650;SDS011;31365;48.858;8.530;2024-02-26T08:35:18;3.70;;;3.50;;
45650;SDS011;31365;48.858;8.530;2024-02-26T08:37:47;3.40;;;3.30;;
45650;SDS011;31365;48.858;8.530;2024-02-26T08:40:16;3.90;;;3.70;;
45650;SDS011;31365;48.858;8.530;2024-02-26T08:42:45;3.60;;;3.50;;
45650;SDS011;31365;48.858;8.530;2024-02-26T08:45:15;3.57;;;3.37;;
45650;SDS011;31365;48.858;8.530;2024-02-26T08:47:44;3.30;;;3.20;;
45650;SDS011;31365;48.858;8.530;2024-02-26T08:50:15;2.83;;;2.73;;
45650;SDS011;31365;48.858;8.530;2024-02-26T08:52:45;2.80;;;2.70;;
45650;SDS011;31365;48.858;8.530;2024-02-26T08:55:17;2.60;;;2.50;;
45650;SDS011;31365;48.858;8.530;2024-02-26T08:57:46;2.17;;;2.07;;
45650;SDS011;31365;48.858;8.530;2024-02-26T09:00:15;2.30;;;2.20;;
45650;SDS011;31365;48.858;8.530;2024-02-26T09:02:47;2.27;;;2.17;;
45650;SDS011;31365;48.858;8.530;2024-02-26T09:05:18;2.37;;;2.27;;
45650;SDS011;31365;48.858;8.530;2024-02-26T09:07:46;2.40;;;2.30;;
45650;SDS011;31365;48.858;8.530;2024-02-26T09:10:15;2.20;;;2.10;;
45650;SDS011;31365;48.858;8.530;2024-02-26T09:12:44;2.23;;;2.07;;
45650;SDS011;31365;48.858;8.530;2024-02-26T09:15:13;1.90;;;1.80;;
45650;SDS011;31365;48.858;8.530;2024-02-26T09:17:41;2.27;;;2.17;;
45650;SDS011;31365;48.858;8.530;2024-02-26T09:20:12;2.10;;;2.00;;
45650;SDS011;31365;48.858;8.530;2024-02-26T09:22:42;2.10;;;2.00;;
45650;SDS011;31365;48.858;8.530;2024-02-26T09:25:11;2.07;;;1.97;;
45650;SDS011;31365;48.858;8.530;2024-02-26T09:27:39;2.13;;;2.03;;
45650;SDS011;31365;48.858;8.530;2024-02-26T09:30:09;2.50;;;2.40;;
45650;SDS011;31365;48.858;8.530;2024-02-26T09:32:39;2.30;;;2.20;;
45650;SDS011;31365;48.858;8.530;2024-02-26T09:35:08;2.10;;;2.00;;
45650;SDS011;31365;48.858;8.530;2024-02-26T09:37:36;2.07;;;1.97;;
45650;SDS011;31365;48.858;8.530;2024-02-26T09:40:07;1.60;;;1.60;;
45650;SDS011;31365;48.858;8.530;2024-02-26T09:42:40;1.60;;;1.50;;
45650;SDS011;31365;48.858;8.530;2024-02-26T09:45:17;1.70;;;1.60;;
45650;SDS011;31365;48.858;8.530;2024-02-26T09:47:47;1.73;;;1.57;;
45650;SDS011;31365;48.858;8.530;2024-02-26T09:50:17;2.00;;;1.90;;
45650;SDS011;31365;48.858;8.530;2024-02-26T09:52:50;1.90;;;1.80;;
45650;SDS011;31365;48.858;8.530;2024-02-26T09:55:21;1.90;;;1.80;;
45650;SDS011;31365;48.858;8.530;2024-02-26T09:57:51;2.23;;;2.13;;
45650;SDS011;31365;48.858;8.530;2024-02-26T10:00:21;1.90;;;1.80;;
45650;SDS011;31365;48.858;8.530;2024-02-26T10:02:50;2.20;;;2.10;;
45650;SDS011;31365;48.858;8.530;2024-02-26T10:05:21;2.43;;;2.23;;
45650;SDS011;31365;48.858;8.530;2024-02-26T10:07:51;2.60;;;2.40;;
45650;SDS011;31365;48.858;8.530;2024-02-26T10:10:24;2.00;;;1.90;;
45650;SDS011;31365;48.858;8.530;2024-02-26T10:12:55;2.20;;;2.00;;
45650;SDS011;31365;48.858;8.530;2024-02-26T10:15:23;2.17;;;1.97;;
45650;SDS011;31365;48.858;8.530;2024-02-26T10:17:53;2.20;;;2.10;;
45650;SDS011;31365;48.858;8.530;2024-02-26T10:20:22;2.43;;;2.23;;
45650;SDS011;31365;48.858;8.530;2024-02-26T10:22:53;2.80;;;2.70;;
45650;SDS011;31365;48.858;8.530;2024-02-26T10:25:22;2.40;;;2.23;;
45650;SDS011;31365;48.858;8.530;2024-02-26T10:27:53;2.27;;;2.10;;
45650;SDS011;31365;48.858;8.530;2024-02-26T10:30:22;2.10;;;2.00;;
45650;SDS011;31365;48.858;8.530;2024-02-26T10:32:53;2.20;;;2.10;;
45650;SDS011;31365;48.858;8.530;2024-02-26T10:35:23;2.00;;;1.90;;
45650;SDS011;31365;48.858;8.530;2024-02-26T10:37:52;1.80;;;1.70;;
45650;SDS011;31365;48.858;8.530;2024-02-26T10:40:21;1.60;;;1.60;;
45650;SDS011;31365;48.858;8.530;2024-02-26T10:42:51;1.73;;;1.63;;
45650;SDS011;31365;48.858;8.530;2024-02-26T10:45:19;2.60;;;2.50;;
45650;SDS011;31365;48.858;8.530;2024-02-26T10:47:47;2.50;;;2.30;;
45650;SDS011;31365;48.858;8.530;2024-02-26T10:50:16;2.97;;;2.78;;
45650;SDS011;31365;48.858;8.530;2024-02-26T10:52:45;5.57;;;5.07;;
45650;SDS011;31365;48.858;8.530;2024-02-26T10:55:15;6.10;;;3.00;;
45650;SDS011;31365;48.858;8.530;2024-02-26T10:57:46;4.18;;;3.03;;
45650;SDS011;31365;48.858;8.530;2024-02-26T11:00:21;2.72;;;2.55;;
45650;SDS011;31365;48.858;8.530;2024-02-26T11:02:52;5.70;;;2.47;;
45650;SDS011;31365;48.858;8.530;2024-02-26T11:05:22;9.75;;;2.53;;
45650;SDS011;31365;48.858;8.530;2024-02-26T11:07:51;8.40;;;2.90;;
45650;SDS011;31365;48.858;8.530;2024-02-26T11:10:20;5.32;;;2.15;;
45650;SDS011;31365;48.858;8.530;2024-02-26T11:12:53;3.08;;;2.03;;
45650;SDS011;31365;48.858;8.530;2024-02-26T11:15:25;5.10;;;2.42;;
45650;SDS011;31365;48.858;8.530;2024-02-26T11:17:55;3.78;;;2.17;;
45650;SDS011;31365;48.858;8.530;2024-02-26T11:20:25;4.93;;;2.35;;
45650;SDS011;31365;48.858;8.530;2024-02-26T11:22:57;2.20;;;2.00;;
45650;SDS011;31365;48.858;8.530;2024-02-26T11:25:25;2.97;;;2.03;;
45650;SDS011;31365;48.858;8.530;2024-02-26T11:27:56;2.60;;;2.50;;
45650;SDS011;31365;48.858;8.530;2024-02-26T11:30:31;5.82;;;3.70;;
45650;SDS011;31365;48.858;8.530;2024-02-26T11:33:08;3.70;;;2.30;;
45650;SDS011;31365;48.858;8.530;2024-02-26T11:35:39;4.70;;;2.20;;
45650;SDS011;31365;48.858;8.530;2024-02-26T11:38:08;4.72;;;2.15;;
45650;SDS011;31365;48.858;8.530;2024-02-26T11:40:48;4.43;;;2.15;;
45650;SDS011;31365;48.858;8.530;2024-02-26T11:43:19;2.10;;;1.98;;
45650;SDS011;31365;48.858;8.530;2024-02-26T11:46:24;2.45;;;2.13;;
45650;SDS011;31365;48.858;8.530;2024-02-26T11:48:54;3.97;;;2.40;;
45650;SDS011;31365;48.858;8.530;2024-02-26T11:51:26;2.30;;;2.20;;
45650;SDS011;31365;48.858;8.530;2024-02-26T11:53:55;5.20;;;3.22;;
45650;SDS011;31365;48.858;8.530;2024-02-26T11:56:25;32.58;;;5.28;;
45650;SDS011;31365;48.858;8.530;2024-02-26T11:58:59;3.70;;;2.72;;
45650;SDS011;31365;48.858;8.530;2024-02-26T12:04:19;2.10;;;1.83;;
45650;SDS011;31365;48.858;8.530;2024-02-26T12:06:52;8.18;;;3.53;;
45650;SDS011;31365;48.858;8.530;2024-02-26T12:09:35;8.13;;;2.97;;
45650;SDS011;31365;48.858;8.530;2024-02-26T12:12:05;5.97;;;2.40;;
45650;SDS011;31365;48.858;8.530;2024-02-26T12:14:50;2.35;;;2.20;;
45650;SDS011;31365;48.858;8.530;2024-02-26T12:17:20;2.53;;;2.20;;
45650;SDS011;31365;48.858;8.530;2024-02-26T12:19:49;23.42;;;4.72;;
45650;SDS011;31365;48.858;8.530;2024-02-26T12:22:21;4.47;;;2.28;;
45650;SDS011;31365;48.858;8.530;2024-02-26T12:24:57;5.20;;;2.13;;
45650;SDS011;31365;48.858;8.530;2024-02-26T12:27:25;14.50;;;3.00;;
45650;SDS011;31365;48.858;8.530;2024-02-26T12:29:55;5.70;;;2.60;;
45650;SDS011;31365;48.858;8.530;2024-02-26T12:32:23;4.07;;;2.33;;
45650;SDS011;31365;48.858;8.530;2024-02-26T12:34:52;2.10;;;2.00;;
45650;SDS011;31365;48.858;8.530;2024-02-26T12:37:21;22.67;;;3.78;;
45650;SDS011;31365;48.858;8.530;2024-02-26T12:39:49;2.42;;;2.20;;
45650;SDS011;31365;48.858;8.530;2024-02-26T12:42:18;7.70;;;2.90;;
45650;SDS011;31365;48.858;8.530;2024-02-26T12:44:46;12.20;;;2.60;;
45650;SDS011;31365;48.858;8.530;2024-02-26T12:47:16;3.38;;;2.20;;
45650;SDS011;31365;48.858;8.530;2024-02-26T12:49:46;17.95;;;3.63;;
45650;SDS011;31365;48.858;8.530;2024-02-26T12:52:16;20.35;;;4.38;;
45650;SDS011;31365;48.858;8.530;2024-02-26T12:54:45;7.40;;;2.80;;
45650;SDS011;31365;48.858;8.530;2024-02-26T12:57:14;3.80;;;2.53;;
45650;SDS011;31365;48.858;8.530;2024-02-26T12:59:42;3.22;;;1.85;;
45650;SDS011;31365;48.858;8.530;2024-02-26T13:02:11;7.63;;;2.78;;
45650;SDS011;31365;48.858;8.530;2024-02-26T13:04:41;2.60;;;2.10;;
45650;SDS011;31365;48.858;8.530;2024-02-26T13:07:10;21.08;;;4.43;;
45650;SDS011;31365;48.858;8.530;2024-02-26T13:09:39;12.02;;;4.97;;
45650;SDS011;31365;48.858;8.530;2024-02-26T13:12:08;3.55;;;3.25;;
45650;SDS011;31365;48.858;8.530;2024-02-26T13:14:37;3.00;;;1.90;;
45650;SDS011;31365;48.858;8.530;2024-02-26T13:17:05;10.35;;;4.22;;
45650;SDS011;31365;48.858;8.530;2024-02-26T13:19:34;4.25;;;3.22;;
45650;SDS011;31365;48.858;8.530;2024-02-26T13:22:07;6.90;;;3.78;;
45650;SDS011;31365;48.858;8.530;2024-02-26T13:24:35;5.43;;;3.08;;
45650;SDS011;31365;48.858;8.530;2024-02-26T13:27:05;26.60;;;5.45;;
45650;SDS011;31365;48.858;8.530;2024-02-26T13:29:34;3.75;;;3.20;;
45650;SDS011;31365;48.858;8.530;2024-02-26T13:32:03;4.72;;;2.90;;
45650;SDS011;31365;48.858;8.530;2024-02-26T13:34:33;3.00;;;2.70;;
45650;SDS011;31365;48.858;8.530;2024-02-26T13:37:03;15.13;;;4.07;;
45650;SDS011;31365;48.858;8.530;2024-02-26T13:39:34;45.83;;;7.32;;
45650;SDS011;31365;48.858;8.530;2024-02-26T13:42:07;19.00;;;4.75;;
45650;SDS011;31365;48.858;8.530;2024-02-26T13:44:39;6.70;;;3.08;;
45650;SDS011;31365;48.858;8.530;2024-02-26T13:47:09;17.00;;;3.70;;
45650;SDS011;31365;48.858;8.530;2024-02-26T13:49:37;34.10;;;4.03;;
45650;SDS011;31365;48.858;8.530;2024-02-26T13:52:05;5.50;;;3.17;;
45650;SDS011;31365;48.858;8.530;2024-02-26T13:54:36;10.55;;;3.08;;
45650;SDS011;31365;48.858;8.530;2024-02-26T13:57:07;4.53;;;3.00;;
45650;SDS011;31365;48.858;8.530;2024-02-26T13:59:36;13.63;;;5.35;;
45650;SDS011;31365;48.858;8.530;2024-02-26T14:02:08;10.07;;;3.70;;
45650;SDS011;31365;48.858;8.530;2024-02-26T14:04:37;5.32;;;1.65;;
45650;SDS011;31365;48.858;8.530;2024-02-26T14:07:05;5.90;;;1.40;;
45650;SDS011;31365;48.858;8.530;2024-02-26T14:09:36;13.45;;;1.70;;
45650;SDS011;31365;48.858;8.530;2024-02-26T14:12:15;6.18;;;2.92;;
45650;SDS011;31365;48.858;8.530;2024-02-26T14:14:48;4.60;;;2.10;;
45650;SDS011;31365;48.858;8.530;2024-02-26T14:17:16;9.93;;;3.78;;
45650;SDS011;31365;48.858;8.530;2024-02-26T14:19:44;5.30;;;4.80;;
45650;SDS011;31365;48.858;8.530;2024-02-26T14:22:14;5.88;;;3.20;;
45650;SDS011;31365;48.858;8.530;2024-02-26T14:24:44;5.63;;;4.85;;
45650;SDS011;31365;48.858;8.530;2024-02-26T14:27:13;3.78;;;2.80;;
45650;SDS011;31365;48.858;8.530;2024-02-26T14:29:44;9.82;;;3.30;;
45650;SDS011;31365;48.858;8.530;2024-02-26T14:32:12;10.43;;;7.13;;
45650;SDS011;31365;48.858;8.530;2024-02-26T14:34:41;3.70;;;3.10;;
45650;SDS011;31365;48.858;8.530;2024-02-26T14:37:12;4.70;;;4.30;;
45650;SDS011;31365;48.858;8.530;2024-02-26T14:39:41;3.78;;;3.58;;
45650;SDS011;31365;48.858;8.530;2024-02-26T14:42:11;9.93;;;4.93;;
45650;SDS011;31365;48.858;8.530;2024-02-26T14:44:43;4.65;;;4.18;;
45650;SDS011;31365;48.858;8.530;2024-02-26T14:47:14;9.15;;;3.67;;
45650;SDS011;31365;48.858;8.530;2024-02-26T14:49:42;6.10;;;3.50;;
45650;SDS011;31365;48.858;8.530;2024-02-26T14:52:13;5.43;;;3.30;;
45650;SDS011;31365;48.858;8.530;2024-02-26T14:54:41;3.70;;;3.20;;
45650;SDS011;31365;48.858;8.530;2024-02-26T14:57:09;3.80;;;3.20;;
45650;SDS011;31365;48.858;8.530;2024-02-26T14:59:40;24.33;;;5.00;;
45650;SDS011;31365;48.858;8.530;2024-02-26T15:02:08;11.57;;;3.88;;
45650;SDS011;31365;48.858;8.530;2024-02-26T15:04:37;11.52;;;4.07;;
45650;SDS011;31365;48.858;8.530;2024-02-26T15:07:05;3.50;;;3.00;;